Archival Weather

Centro Met. Antartico Pdte. E

Centro Met. Antartico Pdte. E, Antarctica (SCRM)

Report from: Thursday, September 21, 2023 12:00 PM UTC
Current time: Friday, February 23, 2024 8:10 PM UTC

Current weather – Weather history – Daily summaries
Weather forecast

Temperature-7.0°C (19.4°F)
Wind chill-17.0°C (1.4°F)
Dew point-12.0°C (10.4°F)
Winds 23 kts (11.8 m/s, 26.5 mph) West-Southwest (240°)
Visibility6.2 mi. (10 km)
Clouds Ceiling: Overcast 2,500 ft. (762 m)
Altimeter29.26 in.Hg (991 mB)
Relative humidity67 %
Density altitude-1,918 ft. (-585 m)
Remarks No significant changes expected in the next two hours
Flight conditions Marginal Visual Meteorological Conditions
Raw dataSCRM 211200Z 24023KT 9999 OVC025 M07/M12 Q0991 NOSIG
An error has occurred. This application may no longer respond until reloaded. Reload 🗙